Time;durP1;ratioP1;P1;durP2;ratioP2;P2;SDS_P1;SDS_P2;PMS_P1;PMS_P2;Temp;Humidity;BMP_temperature;BMP_pressure;BME280_temperature;BME280_humidity;BME280_pressure;Samples;Min_cycle;Max_cycle;Signal;HPM_P1;HPM_P2
2022/06/26 00:01:06;;;;;;;13.77;11.88;;;17.50;99.90;;;;;;5091840;28;20028;-76
2022/06/26 00:03:32;;;;;;;17.70;14.27;;;17.50;99.90;;;;;;5073748;28;20487;-77
2022/06/26 00:05:58;;;;;;;18.38;15.27;;;17.50;99.90;;;;;;5091698;28;20044;-77
2022/06/26 00:08:25;;;;;;;19.15;15.02;;;17.50;99.90;;;;;;5090464;28;20077;-77
2022/06/26 00:10:52;;;;;;;19.63;14.63;;;17.50;99.90;;;;;;5091882;28;20040;-77
2022/06/26 00:13:18;;;;;;;22.67;15.52;;;17.50;99.90;;;;;;5091136;28;20592;-77
2022/06/26 00:15:45;;;;;;;17.90;14.68;;;17.50;99.90;;;;;;5091171;28;20043;-77
2022/06/26 00:18:12;;;;;;;18.30;13.88;;;17.50;99.90;;;;;;5073611;28;20109;-77
2022/06/26 00:20:37;;;;;;;20.90;16.05;;;17.50;99.90;;;;;;5090312;28;20044;-77
2022/06/26 00:23:03;;;;;;;17.60;14.13;;;17.50;99.90;;;;;;5072465;28;20387;-77
2022/06/26 00:25:29;;;;;;;14.05;12.32;;;17.60;99.90;;;;;;5091228;28;20143;-77
2022/06/26 00:27:55;;;;;;;14.10;11.48;;;17.40;99.90;;;;;;5091569;28;20044;-77
2022/06/26 00:30:21;;;;;;;12.18;10.68;;;17.40;99.90;;;;;;5091174;28;20093;-77
2022/06/26 00:32:47;;;;;;;14.23;11.90;;;17.40;99.90;;;;;;5091271;28;20048;-77
2022/06/26 00:35:13;;;;;;;15.38;13.20;;;17.40;99.90;;;;;;5091100;28;20753;-77
2022/06/26 00:37:38;;;;;;;15.10;12.00;;;17.30;99.90;;;;;;5089727;28;20095;-76
2022/06/26 00:40:05;;;;;;;16.30;13.18;;;17.40;99.90;;;;;;5090943;28;20048;-76
2022/06/26 00:42:31;;;;;;;18.30;12.73;;;17.40;99.90;;;;;;5072777;28;20138;-77
2022/06/26 00:44:56;;;;;;;13.63;10.38;;;17.40;99.90;;;;;;5089335;28;20177;-77
2022/06/26 00:47:23;;;;;;;11.90;9.73;;;17.40;99.90;;;;;;5090885;28;20044;-77
2022/06/26 00:49:49;;;;;;;15.88;13.52;;;17.30;99.90;;;;;;5073014;28;20118;-76
2022/06/26 00:52:20;;;;;;;15.68;13.80;;;17.40;99.90;;;;;;5090750;28;20609;-77
2022/06/26 00:54:46;;;;;;;18.27;14.10;;;17.30;99.90;;;;;;5090504;28;20047;-76
2022/06/26 00:57:12;;;;;;;29.80;18.02;;;17.20;99.90;;;;;;5072630;28;20055;-82
2022/06/26 00:59:38;;;;;;;22.52;16.42;;;17.30;99.90;;;;;;5090698;28;20048;-79
2022/06/26 01:02:04;;;;;;;26.88;18.27;;;17.30;99.90;;;;;;5090767;28;20040;-77
2022/06/26 01:04:30;;;;;;;26.52;17.85;;;17.30;99.90;;;;;;5090946;28;20071;-76
2022/06/26 01:06:55;;;;;;;21.35;15.95;;;17.30;99.90;;;;;;5090903;28;20487;-76
2022/06/26 01:09:21;;;;;;;26.40;17.23;;;17.50;99.90;;;;;;5090629;28;20047;-78
2022/06/26 01:11:47;;;;;;;22.88;15.98;;;17.40;99.90;;;;;;5090894;28;20105;-75
2022/06/26 01:14:14;;;;;;;23.20;16.02;;;17.30;99.90;;;;;;5090437;28;20048;-77
2022/06/26 01:16:40;;;;;;;23.75;16.90;;;17.40;99.90;;;;;;5090159;28;20126;-77
2022/06/26 01:19:07;;;;;;;25.88;15.30;;;17.40;99.90;;;;;;5090652;28;20047;-78
2022/06/26 01:21:34;;;;;;;22.00;15.25;;;17.50;99.90;;;;;;5090631;28;20130;-78
2022/06/26 01:24:00;;;;;;;22.48;16.20;;;17.40;99.90;;;;;;5090296;28;20160;-79
2022/06/26 01:26:26;;;;;;;24.92;15.45;;;17.40;99.90;;;;;;5090666;28;20059;-77
2022/06/26 01:28:52;;;;;;;24.40;14.68;;;17.50;99.90;;;;;;5094709;28;20043;-80
2022/06/26 01:31:19;;;;;;;21.60;14.80;;;17.40;99.90;;;;;;5094423;28;20040;-80
2022/06/26 01:33:49;;;;;;;23.02;14.63;;;17.40;99.90;;;;;;5094630;28;20036;-80
2022/06/26 01:36:15;;;;;;;19.92;13.23;;;17.40;99.90;;;;;;5094413;28;20058;-80
2022/06/26 01:38:41;;;;;;;24.60;14.07;;;17.40;99.90;;;;;;5094178;28;20124;-80
2022/06/26 01:41:08;;;;;;;17.73;13.23;;;17.50;99.90;;;;;;5076236;28;20051;-80
2022/06/26 01:43:37;;;;;;;25.05;13.60;;;17.50;99.90;;;;;;5094528;28;20054;-80
2022/06/26 01:46:04;;;;;;;20.35;12.75;;;17.40;99.90;;;;;;5094247;28;20052;-80
2022/06/26 01:48:32;;;;;;;19.77;12.55;;;17.40;99.90;;;;;;5094167;28;20051;-80
2022/06/26 01:50:59;;;;;;;22.35;13.35;;;17.50;99.90;;;;;;5094151;28;20121;-80
2022/06/26 01:53:25;;;;;;;15.68;12.00;;;17.40;99.90;;;;;;5076213;28;20491;-80
2022/06/26 01:55:51;;;;;;;17.10;11.93;;;17.40;99.90;;;;;;5075994;28;20044;-80
2022/06/26 01:58:17;;;;;;;15.30;10.43;;;17.50;99.90;;;;;;5093993;28;20376;-80
2022/06/26 02:00:45;;;;;;;15.25;10.48;;;17.50;99.90;;;;;;5094009;28;20083;-80
2022/06/26 02:03:12;;;;;;;16.13;11.18;;;17.40;99.90;;;;;;5093811;28;20040;-80
2022/06/26 02:05:38;;;;;;;19.55;10.57;;;17.50;99.90;;;;;;5093894;28;20047;-80
2022/06/26 02:08:05;;;;;;;11.63;9.48;;;17.50;99.90;;;;;;5093812;28;20094;-79
2022/06/26 02:16:02;;;;;;;19.07;9.93;;;17.50;99.90;;;;;;5093849;28;19965;-79
2022/06/26 02:18:28;;;;;;;16.50;9.68;;;17.50;99.90;;;;;;5093464;28;20040;-79
2022/06/26 02:20:55;;;;;;;14.77;9.40;;;17.40;99.90;;;;;;5093600;28;20056;-78
2022/06/26 02:23:21;;;;;;;12.48;9.32;;;17.50;99.90;;;;;;5093722;28;20043;-78
2022/06/26 02:25:47;;;;;;;13.15;9.18;;;17.70;99.90;;;;;;5093614;28;20038;-79
2022/06/26 02:28:13;;;;;;;14.07;9.10;;;17.40;99.90;;;;;;5093616;28;20048;-78
2022/06/26 02:30:38;;;;;;;15.63;9.13;;;17.50;99.90;;;;;;5093578;28;20123;-77
2022/06/26 02:33:04;;;;;;;15.85;9.18;;;17.50;99.90;;;;;;5093039;28;20051;-76
2022/06/26 02:35:31;;;;;;;13.27;7.85;;;17.50;99.90;;;;;;5093297;28;20100;-76
2022/06/26 02:37:57;;;;;;;17.10;9.70;;;17.50;99.90;;;;;;5093372;28;20479;-78
2022/06/26 02:40:24;;;;;;;14.13;8.55;;;17.50;99.90;;;;;;5075270;28;20043;-78
2022/06/26 02:42:51;;;;;;;16.58;9.13;;;17.50;99.90;;;;;;5075036;28;20097;-77
2022/06/26 02:45:16;;;;;;;11.48;8.20;;;17.40;99.90;;;;;;5093320;28;20104;-78
2022/06/26 02:47:42;;;;;;;11.95;8.40;;;17.40;99.90;;;;;;5074633;28;20483;-78
2022/06/26 02:50:09;;;;;;;10.52;7.68;;;17.50;99.90;;;;;;5092877;28;20044;-78
2022/06/26 02:52:35;;;;;;;11.40;8.02;;;17.40;99.90;;;;;;5075325;28;20036;-77
2022/06/26 02:55:01;;;;;;;15.23;8.23;;;17.50;99.90;;;;;;5093119;28;20047;-78
2022/06/26 02:57:27;;;;;;;11.55;8.55;;;17.50;99.90;;;;;;5093154;28;20055;-78
2022/06/26 02:59:53;;;;;;;14.10;8.13;;;17.50;99.90;;;;;;5075137;28;20079;-77
2022/06/26 03:02:19;;;;;;;12.38;8.00;;;17.40;99.90;;;;;;5093224;28;20071;-79
2022/06/26 03:04:45;;;;;;;12.43;7.18;;;17.40;99.90;;;;;;5092840;28;20040;-77
2022/06/26 03:07:10;;;;;;;11.30;7.40;;;17.40;99.90;;;;;;5092900;28;20040;-76
2022/06/26 03:09:36;;;;;;;10.43;7.75;;;17.50;99.90;;;;;;5092816;28;20050;-78
2022/06/26 03:12:02;;;;;;;11.55;7.50;;;17.40;99.90;;;;;;5092939;28;20131;-79
2022/06/26 03:14:28;;;;;;;11.95;7.32;;;17.40;99.90;;;;;;5092832;28;20109;-79
2022/06/26 03:16:54;;;;;;;8.82;6.68;;;17.40;99.90;;;;;;5092643;28;20083;-79
2022/06/26 03:19:19;;;;;;;11.27;6.82;;;17.40;99.90;;;;;;5092294;28;20047;-78
2022/06/26 03:21:45;;;;;;;12.23;6.00;;;17.30;99.90;;;;;;5092552;28;20044;-76
2022/06/26 03:24:11;;;;;;;10.75;7.22;;;17.30;99.90;;;;;;5092950;28;20066;-78
2022/06/26 03:26:38;;;;;;;10.82;6.28;;;17.30;99.90;;;;;;5092929;28;20052;-78
2022/06/26 03:29:09;;;;;;;7.35;6.15;;;17.40;99.90;;;;;;5092505;28;20089;-77
2022/06/26 03:31:35;;;;;;;11.13;6.00;;;17.20;99.90;;;;;;5092479;28;20075;-79
2022/06/26 03:34:01;;;;;;;8.55;5.13;;;17.30;99.90;;;;;;5092425;28;20097;-79
2022/06/26 03:36:28;;;;;;;10.23;5.65;;;17.20;99.90;;;;;;5091863;28;20040;-80
2022/06/26 03:38:54;;;;;;;7.78;5.45;;;17.20;99.90;;;;;;5092521;28;20040;-82
2022/06/26 03:41:20;;;;;;;7.28;4.78;;;17.20;99.90;;;;;;5074317;28;20051;-82
2022/06/26 03:43:46;;;;;;;10.73;4.95;;;17.20;99.90;;;;;;5092045;28;20151;-78
2022/06/26 03:46:12;;;;;;;11.23;5.03;;;17.20;99.90;;;;;;5092140;28;20527;-79
2022/06/26 03:48:37;;;;;;;9.27;5.00;;;17.20;99.90;;;;;;5090516;28;20059;-77
2022/06/26 03:51:04;;;;;;;8.73;4.22;;;17.20;99.90;;;;;;5090980;28;20048;-80
2022/06/26 03:53:31;;;;;;;7.03;4.80;;;17.10;99.90;;;;;;5091873;28;20045;-79
2022/06/26 03:55:56;;;;;;;9.52;4.28;;;17.30;99.90;;;;;;5073648;28;20099;-80
2022/06/26 03:58:22;;;;;;;13.77;5.40;;;17.20;99.90;;;;;;5091878;28;20087;-77
2022/06/26 04:00:49;;;;;;;10.25;4.43;;;17.10;99.90;;;;;;5091904;28;20044;-78
2022/06/26 04:03:15;;;;;;;8.25;4.53;;;17.20;99.90;;;;;;5091876;28;20063;-80
2022/06/26 04:05:41;;;;;;;5.82;4.07;;;17.20;99.90;;;;;;5073432;28;20082;-79
2022/06/26 04:08:08;;;;;;;5.30;4.00;;;17.20;99.90;;;;;;5073499;28;20075;-79
2022/06/26 04:10:34;;;;;;;8.70;4.22;;;17.10;99.90;;;;;;5091609;28;20040;-79
2022/06/26 04:13:02;;;;;;;5.72;3.90;;;17.10;99.90;;;;;;5091531;28;20073;-79
2022/06/26 04:15:28;;;;;;;7.03;3.53;;;17.10;99.90;;;;;;5091716;28;20052;-77
2022/06/26 04:17:55;;;;;;;4.82;3.75;;;17.10;99.90;;;;;;5073595;28;20050;-80
2022/06/26 04:20:21;;;;;;;7.30;3.75;;;17.10;99.90;;;;;;5091369;28;20575;-80
2022/06/26 04:23:00;;;;;;;8.45;4.18;;;17.10;99.90;;;;;;5091184;28;20040;-80
2022/06/26 04:25:28;;;;;;;6.43;3.83;;;17.10;99.90;;;;;;5073308;28;20127;-77
2022/06/26 04:27:54;;;;;;;6.30;3.55;;;17.30;99.90;;;;;;5073263;28;20048;-81
2022/06/26 04:30:20;;;;;;;6.22;3.70;;;17.20;99.90;;;;;;5073167;28;20048;-78
2022/06/26 04:32:46;;;;;;;6.43;3.50;;;17.20;99.90;;;;;;5073393;28;20060;-79
2022/06/26 04:35:12;;;;;;;7.30;3.67;;;17.30;99.90;;;;;;5091082;28;20040;-77
2022/06/26 04:37:38;;;;;;;5.55;3.60;;;17.30;99.90;;;;;;5091133;28;20052;-75
2022/06/26 04:40:05;;;;;;;6.15;4.03;;;17.30;99.90;;;;;;5091128;28;20089;-79
2022/06/26 04:42:31;;;;;;;5.15;3.50;;;17.20;99.90;;;;;;5073177;28;20395;-77
2022/06/26 04:44:57;;;;;;;6.47;3.50;;;17.20;99.90;;;;;;5091147;28;20036;-80
2022/06/26 04:47:23;;;;;;;9.65;3.95;;;17.20;99.90;;;;;;5090985;28;20044;-79
2022/06/26 04:49:48;;;;;;;7.32;4.00;;;17.30;99.90;;;;;;5090919;28;20381;-78
2022/06/26 04:52:15;;;;;;;4.93;3.65;;;17.30;99.90;;;;;;5090645;28;20398;-81
2022/06/26 04:54:44;;;;;;;6.15;4.05;;;17.60;99.90;;;;;;5089470;28;20048;-79
2022/06/26 04:57:10;;;;;;;6.25;3.78;;;17.30;99.90;;;;;;5072638;28;20039;-77
2022/06/26 04:59:35;;;;;;;4.95;4.22;;;17.30;99.90;;;;;;5090982;28;20427;-81
2022/06/26 05:02:02;;;;;;;7.85;3.60;;;17.30;99.90;;;;;;5089972;28;20104;-75
2022/06/26 05:04:27;;;;;;;5.72;3.92;;;17.30;99.90;;;;;;5072800;28;20039;-79
2022/06/26 05:06:53;;;;;;;7.50;4.53;;;17.40;99.90;;;;;;5072879;28;20129;-77
2022/06/26 05:09:19;;;;;;;5.60;3.95;;;17.50;99.90;;;;;;5090368;28;20083;-77
2022/06/26 05:11:45;;;;;;;5.90;4.32;;;17.50;99.90;;;;;;5072676;28;20564;-78
2022/06/26 05:14:11;;;;;;;6.00;4.18;;;17.60;99.90;;;;;;5072622;28;20041;-78
2022/06/26 05:16:37;;;;;;;7.07;4.60;;;17.60;99.90;;;;;;5090895;28;20044;-75
2022/06/26 05:19:03;;;;;;;6.35;4.55;;;17.60;99.90;;;;;;5090974;28;20044;-76
2022/06/26 05:21:29;;;;;;;8.13;4.68;;;17.70;99.90;;;;;;5072889;28;20044;-81
2022/06/26 05:23:55;;;;;;;9.45;5.05;;;17.90;99.90;;;;;;5090451;28;20052;-78
2022/06/26 05:26:22;;;;;;;7.40;4.70;;;17.70;99.90;;;;;;5072912;28;20126;-80
2022/06/26 05:28:48;;;;;;;8.43;5.10;;;17.80;99.90;;;;;;5090942;28;20047;-76
2022/06/26 05:31:14;;;;;;;9.15;4.57;;;17.80;99.90;;;;;;5072810;28;20119;-81
2022/06/26 05:33:40;;;;;;;8.10;4.95;;;17.70;99.90;;;;;;5072665;28;20047;-77
2022/06/26 05:36:07;;;;;;;11.95;5.57;;;17.70;99.90;;;;;;5090404;28;20324;-80
2022/06/26 05:38:33;;;;;;;5.85;5.25;;;17.70;99.90;;;;;;5072615;28;20044;-81
2022/06/26 05:40:59;;;;;;;7.05;5.47;;;17.90;99.90;;;;;;5072790;28;20136;-78
2022/06/26 05:43:25;;;;;;;6.63;5.90;;;17.80;99.90;;;;;;5090881;28;20123;-81
2022/06/26 05:45:51;;;;;;;9.50;6.20;;;17.80;99.90;;;;;;5090719;28;20089;-76
2022/06/26 05:48:17;;;;;;;7.82;6.05;;;17.80;99.90;;;;;;5090289;28;20495;-76
2022/06/26 05:50:43;;;;;;;9.88;7.00;;;17.80;99.90;;;;;;5090081;28;20080;-81
2022/06/26 05:53:09;;;;;;;9.15;7.38;;;17.80;99.90;;;;;;5090623;28;20073;-79
2022/06/26 05:55:34;;;;;;;9.65;7.82;;;17.80;99.90;;;;;;5090081;28;20036;-82
2022/06/26 05:58:01;;;;;;;11.25;7.13;;;17.80;99.90;;;;;;5090348;28;20140;-78
2022/06/26 06:00:27;;;;;;;12.95;7.93;;;17.80;99.90;;;;;;5090346;28;20506;-80
2022/06/26 06:02:52;;;;;;;9.55;7.50;;;17.80;99.90;;;;;;5072105;28;20055;-81
2022/06/26 06:05:18;;;;;;;10.88;8.32;;;17.70;99.90;;;;;;5090112;28;20532;-78
2022/06/26 06:07:44;;;;;;;11.95;8.35;;;17.90;99.90;;;;;;5090148;28;20036;-78
2022/06/26 06:10:09;;;;;;;10.15;8.93;;;17.90;99.90;;;;;;5071870;28;20048;-77
2022/06/26 06:12:35;;;;;;;11.43;8.85;;;17.90;99.90;;;;;;5090297;28;20079;-83
2022/06/26 06:15:02;;;;;;;10.88;9.02;;;17.90;99.90;;;;;;5094063;28;20505;-80
2022/06/26 06:17:37;;;;;;;10.13;8.68;;;18.00;99.90;;;;;;5093880;28;20040;-76
2022/06/26 06:20:14;;;;;;;13.48;10.02;;;18.00;99.90;;;;;;5093711;28;20039;-80
2022/06/26 06:23:02;;;;;;;12.25;9.88;;;18.00;99.90;;;;;;5094120;28;20106;-80
2022/06/26 06:25:27;;;;;;;16.30;10.85;;;18.00;99.90;;;;;;5092993;28;20115;-76
2022/06/26 06:27:53;;;;;;;13.90;11.02;;;18.00;99.90;;;;;;5093720;28;20139;-79
2022/06/26 06:30:19;;;;;;;14.52;11.98;;;18.10;99.90;;;;;;5075556;28;20040;-79
2022/06/26 06:32:45;;;;;;;13.05;11.25;;;18.00;99.90;;;;;;5093402;28;20044;-80
2022/06/26 06:35:13;;;;;;;16.00;12.38;;;18.10;99.90;;;;;;5093468;28;20044;-79
2022/06/26 06:37:40;;;;;;;15.15;12.60;;;18.10;99.90;;;;;;5093564;28;20043;-76
2022/06/26 06:40:07;;;;;;;19.10;14.00;;;18.20;99.90;;;;;;5093257;28;20157;-77
2022/06/26 06:42:33;;;;;;;16.63;12.88;;;18.20;99.90;;;;;;5093104;28;20040;-79
2022/06/26 06:44:59;;;;;;;18.20;13.32;;;18.20;99.90;;;;;;5093404;28;20046;-81
2022/06/26 06:47:25;;;;;;;17.55;14.55;;;18.20;99.90;;;;;;5092988;28;20055;-77
2022/06/26 06:49:50;;;;;;;18.33;14.52;;;18.20;99.90;;;;;;5093467;28;20064;-80
2022/06/26 06:52:16;;;;;;;21.45;15.52;;;18.20;99.90;;;;;;5093344;28;20036;-77
2022/06/26 06:54:42;;;;;;;20.40;15.57;;;18.30;99.90;;;;;;5093315;28;20043;-79
2022/06/26 06:57:07;;;;;;;19.65;17.02;;;18.40;99.90;;;;;;5092908;28;20048;-79
2022/06/26 06:59:33;;;;;;;19.88;15.80;;;18.30;99.90;;;;;;5092986;28;20036;-80
2022/06/26 07:01:59;;;;;;;22.33;17.10;;;18.30;99.90;;;;;;5093126;28;20059;-79
2022/06/26 07:04:24;;;;;;;21.73;17.83;;;18.20;99.90;;;;;;5074672;28;20047;-81
2022/06/26 07:06:50;;;;;;;23.27;18.63;;;18.30;99.90;;;;;;5092966;28;20101;-77
2022/06/26 07:09:16;;;;;;;24.30;19.50;;;18.20;99.90;;;;;;5093011;28;20056;-78
2022/06/26 07:11:42;;;;;;;22.15;18.33;;;18.20;99.90;;;;;;5092685;28;20119;-79
2022/06/26 07:14:08;;;;;;;25.48;19.38;;;18.40;99.90;;;;;;5092689;28;20132;-78
2022/06/26 07:16:33;;;;;;;24.63;19.27;;;18.20;99.90;;;;;;5092634;28;20043;-76
2022/06/26 07:18:59;;;;;;;23.23;18.67;;;18.20;99.90;;;;;;5092652;28;20105;-75
2022/06/26 07:21:25;;;;;;;25.70;18.60;;;18.20;99.90;;;;;;5074673;28;20052;-78
2022/06/26 07:23:50;;;;;;;22.73;18.60;;;18.30;99.90;;;;;;5092648;28;20047;-80
2022/06/26 07:26:16;;;;;;;22.42;18.80;;;18.40;99.90;;;;;;5091741;28;20054;-74
2022/06/26 07:28:42;;;;;;;22.67;17.55;;;18.50;99.90;;;;;;5092128;28;20032;-81
2022/06/26 07:31:08;;;;;;;24.48;17.92;;;18.50;99.90;;;;;;5091178;28;20052;-80
2022/06/26 07:36:17;;;;;;;19.27;15.07;;;18.80;99.90;;;;;;5092467;28;20131;-80
2022/06/26 07:38:43;;;;;;;18.73;15.18;;;18.70;99.90;;;;;;5073991;28;20441;-76
2022/06/26 07:41:09;;;;;;;19.23;14.10;;;19.00;99.90;;;;;;5092555;28;20134;-80
2022/06/26 07:43:34;;;;;;;18.17;14.13;;;19.20;99.90;;;;;;5083609;28;20399;-78
2022/06/26 07:46:00;;;;;;;19.73;14.35;;;19.50;99.90;;;;;;5091009;28;20402;-81
2022/06/26 07:48:26;;;;;;;19.85;13.35;;;19.70;99.90;;;;;;5091699;28;20102;-80
2022/06/26 07:50:52;;;;;;;16.55;12.90;;;19.90;99.90;;;;;;5092202;28;20406;-79
2022/06/26 07:53:19;;;;;;;18.00;13.60;;;20.20;99.90;;;;;;5090714;28;20080;-76
2022/06/26 07:55:45;;;;;;;17.80;11.02;;;20.50;99.90;;;;;;5091858;28;20048;-79
2022/06/26 07:58:10;;;;;;;13.88;11.20;;;20.80;99.90;;;;;;5090512;28;20075;-80
2022/06/26 08:00:36;;;;;;;14.15;11.45;;;20.80;99.90;;;;;;5091931;28;20391;-78
2022/06/26 08:03:09;;;;;;;17.67;10.68;;;20.80;99.90;;;;;;5091763;28;20043;-78
2022/06/26 08:05:35;;;;;;;16.48;11.25;;;20.70;99.90;;;;;;5073765;28;20052;-77
2022/06/26 08:08:02;;;;;;;15.65;12.38;;;20.70;99.90;;;;;;5091194;28;20048;-81
2022/06/26 08:10:28;;;;;;;16.33;11.63;;;20.90;99.90;;;;;;5091638;28;20093;-79
2022/06/26 08:12:54;;;;;;;13.90;11.38;;;20.80;99.90;;;;;;5090341;28;20052;-78
2022/06/26 08:15:21;;;;;;;13.98;10.68;;;20.80;99.90;;;;;;5073399;28;20089;-77
2022/06/26 08:17:46;;;;;;;10.50;8.73;;;20.80;99.90;;;;;;5091431;28;20051;-77
2022/06/26 08:20:12;;;;;;;11.20;8.00;;;20.60;99.90;;;;;;5091714;28;20044;-79
2022/06/26 08:22:38;;;;;;;14.52;7.93;;;20.40;99.90;;;;;;5091484;28;20047;-78
2022/06/26 08:25:04;;;;;;;11.98;8.30;;;20.50;99.90;;;;;;5091399;28;20047;-77
2022/06/26 08:27:30;;;;;;;10.93;7.78;;;20.60;99.90;;;;;;5091562;28;20044;-80
2022/06/26 08:29:55;;;;;;;9.68;7.72;;;20.80;99.90;;;;;;5091101;28;20036;-79
2022/06/26 08:32:21;;;;;;;12.50;7.82;;;21.10;99.90;;;;;;5091281;28;20040;-79
2022/06/26 08:34:46;;;;;;;11.15;8.35;;;21.20;99.90;;;;;;5072891;28;20090;-77
2022/06/26 08:37:12;;;;;;;12.40;10.18;;;21.40;99.90;;;;;;5091188;28;20052;-82
2022/06/26 08:39:38;;;;;;;13.50;10.70;;;21.50;99.90;;;;;;5091088;28;20063;-79
2022/06/26 08:42:04;;;;;;;15.07;11.00;;;21.60;99.90;;;;;;5091076;28;20044;-82
2022/06/26 08:44:32;;;;;;;14.65;9.95;;;21.90;99.90;;;;;;5090975;28;20152;-81
2022/06/26 08:46:59;;;;;;;15.05;9.48;;;22.00;99.90;;;;;;5090711;28;20517;-79
2022/06/26 08:49:25;;;;;;;10.50;8.40;;;22.20;99.90;;;;;;5090784;28;20095;-79
2022/06/26 08:51:52;;;;;;;11.48;7.15;;;22.30;99.90;;;;;;5091009;28;20076;-78
2022/06/26 08:54:19;;;;;;;9.40;6.68;;;22.30;99.90;;;;;;5091006;28;20040;-80
2022/06/26 08:56:48;;;;;;;9.35;6.38;;;22.30;99.90;;;;;;5090600;28;20403;-84
2022/06/26 08:59:18;;;;;;;7.97;4.63;;;22.50;99.90;;;;;;5072736;28;20395;-79
2022/06/26 09:01:44;;;;;;;8.25;4.80;;;22.70;99.90;;;;;;5090499;28;20482;-79
2022/06/26 09:04:11;;;;;;;6.22;3.42;;;22.70;99.90;;;;;;5090508;28;20040;-77
2022/06/26 09:06:38;;;;;;;8.93;3.50;;;22.70;99.90;;;;;;5089432;28;20056;-78
2022/06/26 09:09:25;;;;;;;6.68;3.70;;;22.70;99.90;;;;;;5090617;28;20475;-77
2022/06/26 09:11:54;;;;;;;6.80;2.97;;;22.60;99.90;;;;;;5072506;28;20491;-82
2022/06/26 09:14:21;;;;;;;8.57;3.20;;;22.30;99.90;;;;;;5090551;28;20089;-78
2022/06/26 09:16:48;;;;;;;5.97;3.10;;;22.10;99.90;;;;;;5070513;28;20476;-82
2022/06/26 09:19:24;;;;;;;6.28;3.22;;;22.10;99.90;;;;;;5090464;28;20040;-79
2022/06/26 09:21:51;;;;;;;5.75;3.13;;;22.20;99.90;;;;;;5090496;28;20044;-79
2022/06/26 09:24:19;;;;;;;6.70;3.78;;;22.40;99.90;;;;;;5090453;28;20505;-81
2022/06/26 09:27:00;;;;;;;7.10;3.50;;;22.60;99.90;;;;;;5090564;28;20048;-78
2022/06/26 09:29:25;;;;;;;9.18;3.70;;;22.70;99.90;;;;;;5090411;28;20122;-79
2022/06/26 09:31:51;;;;;;;4.90;2.95;;;22.90;99.90;;;;;;5072111;28;20127;-80
2022/06/26 09:34:24;;;;;;;4.80;3.35;;;23.00;99.90;;;;;;5090420;28;20048;-82
2022/06/26 09:37:01;;;;;;;4.20;2.80;;;23.10;99.90;;;;;;5090314;28;20487;-83
2022/06/26 09:39:29;;;;;;;6.82;2.90;;;23.30;99.90;;;;;;5090423;28;20044;-81
2022/06/26 09:41:54;;;;;;;4.97;2.70;;;23.50;99.90;;;;;;5090336;28;20056;-83
2022/06/26 09:44:21;;;;;;;5.30;2.47;;;23.50;99.90;;;;;;5090892;28;20036;-76
2022/06/26 09:46:47;;;;;;;5.95;2.70;;;23.20;99.90;;;;;;5090389;28;20055;-80
2022/06/26 09:49:14;;;;;;;5.60;2.42;;;23.20;99.90;;;;;;5074638;28;20062;-79
2022/06/26 09:51:40;;;;;;;4.22;1.88;;;23.10;99.90;;;;;;5094324;28;20134;-77
2022/06/26 09:54:06;;;;;;;4.10;2.00;;;23.30;99.90;;;;;;5094239;28;20108;-83
2022/06/26 09:56:32;;;;;;;3.25;1.40;;;23.50;99.90;;;;;;5094206;28;20056;-77
2022/06/26 09:58:59;;;;;;;3.42;1.58;;;23.50;99.90;;;;;;5094402;28;20047;-82
2022/06/26 10:07:06;;;;;;;4.63;2.13;;;23.80;99.90;;;;;;5093730;28;20566;-84
2022/06/26 10:09:34;;;;;;;15.95;3.22;;;24.00;99.90;;;;;;5075833;28;20119;-84
2022/06/26 10:12:02;;;;;;;6.47;2.35;;;24.20;99.90;;;;;;5075912;28;20043;-76
2022/06/26 10:14:39;;;;;;;5.32;2.50;;;24.40;99.90;;;;;;5058782;28;20483;-81
2022/06/26 10:17:20;;;;;;;4.65;2.30;;;24.40;99.90;;;;;;5093473;28;20054;-77
2022/06/26 10:19:52;;;;;;;5.15;2.00;;;24.10;99.90;;;;;;5093551;28;20554;-79
2022/06/26 10:22:18;;;;;;;5.70;2.33;;;23.80;99.90;;;;;;5075650;28;20044;-80
2022/06/26 10:24:51;;;;;;;6.07;1.90;;;23.70;99.90;;;;;;5093588;28;20044;-82
2022/06/26 10:27:23;;;;;;;4.57;1.95;;;23.50;99.90;;;;;;5075620;28;20398;-82
2022/06/26 10:29:48;;;;;;;3.60;1.77;;;23.50;99.90;;;;;;5075529;28;20043;-81
2022/06/26 10:32:22;;;;;;;6.78;2.25;;;23.40;99.90;;;;;;5093319;28;20491;-79
2022/06/26 10:34:55;;;;;;;4.68;1.65;;;23.40;99.90;;;;;;5093626;28;20093;-79
2022/06/26 10:37:21;;;;;;;4.47;1.70;;;23.40;99.90;;;;;;5093504;28;20044;-80
2022/06/26 10:39:49;;;;;;;3.35;1.80;;;23.40;99.90;;;;;;5093287;28;20467;-79
2022/06/26 10:45:14;;;;;;;5.25;2.20;;;23.50;99.90;;;;;;5074977;28;20542;-80
2022/06/26 10:47:42;;;;;;;7.32;2.38;;;23.50;99.90;;;;;;5093051;28;20560;-79
2022/06/26 10:50:27;;;;;;;8.73;2.30;;;23.60;99.90;;;;;;5092998;28;20526;-82
2022/06/26 10:53:11;;;;;;;5.75;2.40;;;23.60;99.90;;;;;;5075662;28;20378;-81
2022/06/26 10:55:38;;;;;;;4.78;2.05;;;23.60;99.90;;;;;;5093504;28;20051;-81
2022/06/26 10:58:04;;;;;;;6.53;2.40;;;23.70;99.90;;;;;;5093292;28;20122;-82
2022/06/26 11:00:29;;;;;;;8.13;2.58;;;23.80;99.90;;;;;;5091838;28;20119;-77
2022/06/26 11:02:55;;;;;;;4.25;1.88;;;23.90;99.90;;;;;;5093007;28;20040;-83
2022/06/26 11:05:21;;;;;;;2.97;1.40;;;24.00;99.90;;;;;;5092857;28;20403;-85
2022/06/26 11:07:51;;;;;;;4.53;1.50;;;24.10;99.90;;;;;;5091663;28;20060;-84
2022/06/26 11:10:22;;;;;;;6.60;1.50;;;24.30;99.90;;;;;;5093029;28;20051;-79
2022/06/26 11:12:50;;;;;;;3.60;1.40;;;24.30;99.90;;;;;;5074756;28;20048;-80
2022/06/26 11:15:26;;;;;;;4.43;1.50;;;24.30;99.90;;;;;;5074436;28;20075;-77
2022/06/26 11:17:58;;;;;;;6.40;1.60;;;24.30;99.90;;;;;;5092873;28;20078;-80
2022/06/26 11:23:19;;;;;;;2.75;2.00;;;24.30;99.90;;;;;;5092931;28;20058;-83
2022/06/26 11:25:46;;;;;;;3.72;1.73;;;24.30;99.90;;;;;;5092728;28;20059;-76
2022/06/26 11:28:12;;;;;;;5.22;1.65;;;24.40;99.90;;;;;;5092544;28;20094;-78
2022/06/26 11:30:40;;;;;;;5.00;1.40;;;24.50;99.90;;;;;;5092510;28;20067;-80
2022/06/26 11:33:07;;;;;;;5.13;1.55;;;24.40;99.90;;;;;;5092469;28;20449;-78
2022/06/26 11:35:36;;;;;;;7.50;2.25;;;24.50;99.90;;;;;;5092073;28;20059;-81
2022/06/26 11:38:10;;;;;;;6.78;1.55;;;24.50;99.90;;;;;;5092571;28;20157;-81
2022/06/26 11:40:36;;;;;;;9.57;1.70;;;24.50;99.90;;;;;;5092238;28;20103;-81
2022/06/26 11:43:02;;;;;;;4.70;1.60;;;24.50;99.90;;;;;;5074510;28;20435;-81
2022/06/26 11:45:31;;;;;;;5.80;1.67;;;24.60;99.90;;;;;;5092275;28;20042;-80
2022/06/26 11:47:59;;;;;;;5.38;1.50;;;24.60;99.90;;;;;;5073530;28;20063;-77
2022/06/26 11:50:29;;;;;;;6.28;1.80;;;24.50;99.90;;;;;;5091951;28;20109;-81
2022/06/26 11:52:57;;;;;;;5.82;1.63;;;24.60;99.90;;;;;;5074223;28;20654;-79
2022/06/26 11:55:23;;;;;;;4.88;1.70;;;24.40;99.90;;;;;;5091886;28;20403;-76
2022/06/26 11:57:49;;;;;;;4.68;1.70;;;24.30;99.90;;;;;;5091989;28;20048;-82
2022/06/26 12:00:19;;;;;;;5.40;1.73;;;24.30;99.90;;;;;;5092002;28;20738;-81
2022/06/26 12:02:48;;;;;;;3.10;1.15;;;24.40;99.90;;;;;;5091719;28;20083;-80
2022/06/26 12:05:20;;;;;;;4.72;1.40;;;24.30;99.90;;;;;;5091593;28;20555;-80
2022/06/26 12:07:48;;;;;;;4.07;1.40;;;24.30;99.90;;;;;;5091935;28;20121;-81
2022/06/26 12:10:36;;;;;;;5.95;1.50;;;24.30;99.90;;;;;;5091570;28;20076;-80
2022/06/26 12:13:03;;;;;;;6.82;1.70;;;24.30;99.90;;;;;;5091935;28;20048;-79
2022/06/26 12:15:34;;;;;;;4.18;1.40;;;24.30;99.90;;;;;;5073603;28;20047;-81
2022/06/26 12:18:03;;;;;;;4.40;1.30;;;24.30;99.90;;;;;;5091840;28;20075;-81
2022/06/26 12:20:35;;;;;;;4.30;1.55;;;24.30;99.90;;;;;;5090191;28;20075;-82
2022/06/26 12:23:01;;;;;;;5.30;1.40;;;24.30;99.90;;;;;;5072898;28;20138;-82
2022/06/26 12:25:32;;;;;;;4.25;1.55;;;24.20;99.90;;;;;;5091529;28;20131;-79
2022/06/26 12:27:59;;;;;;;6.57;1.75;;;24.20;99.90;;;;;;5091364;28;20052;-81
2022/06/26 12:30:31;;;;;;;5.97;1.80;;;24.20;99.90;;;;;;5091329;28;20495;-82
2022/06/26 12:32:58;;;;;;;6.85;1.45;;;24.20;99.90;;;;;;5091241;28;20610;-79
2022/06/26 12:35:25;;;;;;;4.78;1.85;;;24.20;99.90;;;;;;5091285;28;20048;-82
2022/06/26 12:37:52;;;;;;;4.00;1.67;;;24.20;99.90;;;;;;5090759;28;20444;-78
2022/06/26 12:40:17;;;;;;;5.28;1.73;;;24.20;99.90;;;;;;5091134;28;20486;-77
2022/06/26 12:42:43;;;;;;;5.15;1.80;;;24.30;99.90;;;;;;5090903;28;20051;-80
2022/06/26 12:45:09;;;;;;;6.97;1.77;;;24.20;99.90;;;;;;5091021;28;20083;-82
2022/06/26 12:47:36;;;;;;;4.05;1.75;;;24.20;99.90;;;;;;5072971;28;20063;-81
2022/06/26 12:50:03;;;;;;;5.40;1.67;;;24.20;99.90;;;;;;5072738;28;20048;-80
2022/06/26 12:52:29;;;;;;;4.18;1.27;;;24.10;99.90;;;;;;5090581;28;20178;-80
2022/06/26 12:54:54;;;;;;;4.47;1.35;;;24.20;99.90;;;;;;5072794;28;20135;-82
2022/06/26 12:57:20;;;;;;;5.65;2.03;;;24.20;99.90;;;;;;5072587;28;20054;-81